createdAt,value
2022-11-01T00:01:39.643Z,4.70
2022-11-01T00:04:08.774Z,4.50
2022-11-01T00:06:36.844Z,4.13
2022-11-01T00:09:06.980Z,4.13
2022-11-01T00:11:35.052Z,4.10
2022-11-01T00:14:02.861Z,4.17
2022-11-01T00:16:31.005Z,4.10
2022-11-01T00:18:58.925Z,5.10
2022-11-01T00:21:26.776Z,4.40
2022-11-01T00:23:54.581Z,4.30
2022-11-01T00:26:25.307Z,4.53
2022-11-01T00:28:53.964Z,4.00
2022-11-01T00:31:23.096Z,3.57
2022-11-01T00:33:51.243Z,3.97
2022-11-01T00:36:19.201Z,3.80
2022-11-01T00:38:50.926Z,3.70
2022-11-01T00:41:20.723Z,4.00
2022-11-01T00:43:50.544Z,3.53
2022-11-01T00:46:18.667Z,3.40
2022-11-01T00:48:46.621Z,3.10
2022-11-01T00:51:14.523Z,4.33
2022-11-01T00:53:42.388Z,3.10
2022-11-01T00:56:10.218Z,3.57
2022-11-01T00:58:38.032Z,5.40
2022-11-01T01:01:07.532Z,4.07
2022-11-01T01:03:35.613Z,3.70
2022-11-01T01:06:03.963Z,3.50
2022-11-01T01:08:31.826Z,3.20
2022-11-01T01:10:59.701Z,3.17
2022-11-01T01:13:27.571Z,3.13
2022-11-01T01:15:55.382Z,3.03
2022-11-01T01:18:24.574Z,3.27
2022-11-01T01:20:52.443Z,2.97
2022-11-01T01:23:20.256Z,3.37
2022-11-01T01:25:47.962Z,3.53
2022-11-01T01:28:15.714Z,3.60
2022-11-01T01:30:43.494Z,4.00
2022-11-01T01:35:41.388Z,4.27
2022-11-01T01:38:09.215Z,3.87
2022-11-01T01:40:36.969Z,4.47
2022-11-01T01:43:04.818Z,4.53
2022-11-01T01:45:38.661Z,4.17
2022-11-01T01:48:15.916Z,5.00
2022-11-01T01:50:49.426Z,6.47
2022-11-01T01:53:22.146Z,6.10
2022-11-01T01:55:54.714Z,7.40
2022-11-01T01:58:27.444Z,5.13
2022-11-01T02:00:55.267Z,5.77
2022-11-01T02:03:26.591Z,4.63
2022-11-01T02:05:59.561Z,4.43
2022-11-01T02:08:28.716Z,5.33
2022-11-01T02:10:58.779Z,5.70
2022-11-01T02:13:26.828Z,6.30
2022-11-01T02:16:14.470Z,5.63
2022-11-01T02:18:48.165Z,6.30
2022-11-01T02:21:50.918Z,6.03
2022-11-01T02:24:58.416Z,5.80
2022-11-01T02:27:33.812Z,5.73
2022-11-01T02:30:20.697Z,5.60
2022-11-01T02:33:07.420Z,5.50
2022-11-01T02:35:44.977Z,5.87
2022-11-01T02:38:21.818Z,7.40
2022-11-01T02:41:00.294Z,5.87
2022-11-01T02:43:36.240Z,7.30
2022-11-01T02:46:21.209Z,6.97
2022-11-01T02:48:50.759Z,6.57
2022-11-01T02:51:22.374Z,6.90
2022-11-01T02:53:50.141Z,8.07
2022-11-01T02:56:19.074Z,9.03
2022-11-01T02:58:49.354Z,8.50
2022-11-01T03:01:23.797Z,7.97
2022-11-01T03:03:57.285Z,6.63
2022-11-01T03:06:28.734Z,6.17
2022-11-01T03:08:59.306Z,6.00
2022-11-01T03:11:34.234Z,6.13
2022-11-01T03:14:08.262Z,5.30
2022-11-01T03:16:40.067Z,6.03
2022-11-01T03:19:20.978Z,4.83
2022-11-01T03:21:58.394Z,5.63
2022-11-01T03:24:28.614Z,5.07
2022-11-01T03:27:03.111Z,6.27
2022-11-01T03:29:33.004Z,6.20
2022-11-01T03:32:04.010Z,6.20
2022-11-01T03:34:35.436Z,5.53
2022-11-01T03:37:08.273Z,5.37
2022-11-01T03:39:42.239Z,5.87
2022-11-01T03:42:15.642Z,5.27
2022-11-01T03:44:48.406Z,5.77
2022-11-01T03:47:16.472Z,5.17
2022-11-01T03:49:45.621Z,5.20
2022-11-01T03:52:13.460Z,5.10
2022-11-01T03:54:41.191Z,5.23
2022-11-01T03:57:09.363Z,5.20
2022-11-01T03:59:37.248Z,5.80
2022-11-01T04:02:05.164Z,6.23
2022-11-01T04:04:33.088Z,9.10
2022-11-01T04:07:02.385Z,9.40
2022-11-01T04:09:30.120Z,7.67
2022-11-01T04:11:57.854Z,6.50
2022-11-01T04:14:43.308Z,6.40
2022-11-01T04:17:28.906Z,6.23
2022-11-01T04:20:14.354Z,6.90
2022-11-01T04:22:43.448Z,8.43
2022-11-01T04:25:11.211Z,7.17
2022-11-01T04:27:38.992Z,8.37
2022-11-01T04:30:07.808Z,8.13
2022-11-01T04:32:35.587Z,6.97
2022-11-01T04:35:03.569Z,9.10
2022-11-01T04:37:31.611Z,8.80
2022-11-01T04:40:00.719Z,9.10
2022-11-01T04:42:28.438Z,8.33
2022-11-01T04:44:56.227Z,6.87
2022-11-01T04:47:23.954Z,8.03
2022-11-01T04:49:51.708Z,8.80
2022-11-01T04:52:19.736Z,9.60
2022-11-01T04:54:47.485Z,10.73
2022-11-01T04:57:24.319Z,11.47
2022-11-01T04:59:53.143Z,11.13
2022-11-01T05:02:22.001Z,9.43
2022-11-01T05:04:49.873Z,8.57
2022-11-01T05:07:17.893Z,8.53
2022-11-01T05:09:46.027Z,9.27
2022-11-01T05:12:13.867Z,10.27
2022-11-01T05:14:42.925Z,14.40
2022-11-01T05:17:10.703Z,12.90
2022-11-01T05:19:38.465Z,15.97
2022-11-01T05:22:06.280Z,14.53
2022-11-01T05:24:34.135Z,14.50
2022-11-01T05:27:02.205Z,13.70
2022-11-01T05:29:33.509Z,11.47
2022-11-01T05:32:03.476Z,9.57
2022-11-01T05:34:31.469Z,8.60
2022-11-01T05:36:59.199Z,8.50
2022-11-01T05:39:27.002Z,7.67
2022-11-01T05:41:56.963Z,9.67
2022-11-01T05:44:27.909Z,12.63
2022-11-01T05:46:55.819Z,12.40
2022-11-01T05:49:24.897Z,12.10
2022-11-01T05:51:52.728Z,11.47
2022-11-01T05:54:20.453Z,11.60
2022-11-01T05:56:48.243Z,12.73
2022-11-01T05:59:16.037Z,14.50
2022-11-01T06:01:43.899Z,13.20
2022-11-01T06:04:11.771Z,14.47
2022-11-01T06:06:40.937Z,13.13
2022-11-01T06:09:09.607Z,12.40
2022-11-01T06:11:41.479Z,11.17
2022-11-01T06:14:11.547Z,10.77
2022-11-01T06:16:40.033Z,9.40
2022-11-01T06:19:07.755Z,9.13
2022-11-01T06:21:35.532Z,9.20
2022-11-01T06:24:04.946Z,9.27
2022-11-01T06:26:32.676Z,9.30
2022-11-01T06:29:01.379Z,13.00
2022-11-01T06:31:29.586Z,17.20
2022-11-01T06:33:57.561Z,15.83
2022-11-01T06:36:25.551Z,13.50
2022-11-01T06:38:53.283Z,11.90
2022-11-01T06:41:22.570Z,11.17
2022-11-01T06:43:50.400Z,10.63
2022-11-01T06:46:18.256Z,13.60
2022-11-01T06:48:48.984Z,14.37
2022-11-01T06:51:16.719Z,15.40
2022-11-01T06:53:44.610Z,15.07
2022-11-01T06:56:12.604Z,14.03
2022-11-01T06:58:41.704Z,13.20
2022-11-01T07:01:09.572Z,14.20
2022-11-01T07:03:37.407Z,14.00
2022-11-01T07:06:05.436Z,11.93
2022-11-01T07:08:33.320Z,12.70
2022-11-01T07:11:01.091Z,14.93
2022-11-01T07:13:33.657Z,13.57
2022-11-01T07:16:04.175Z,12.17
2022-11-01T07:18:32.112Z,10.70
2022-11-01T07:21:02.621Z,9.93
2022-11-01T07:23:30.760Z,11.17
2022-11-01T07:25:58.887Z,17.13
2022-11-01T07:28:26.728Z,20.57
2022-11-01T07:30:55.999Z,20.87
2022-11-01T07:33:25.134Z,19.50
2022-11-01T07:35:53.346Z,18.23
2022-11-01T07:38:21.168Z,16.57
2022-11-01T07:40:49.821Z,14.40
2022-11-01T07:43:18.317Z,12.53
2022-11-01T07:45:46.404Z,12.47
2022-11-01T07:48:16.146Z,14.67
2022-11-01T07:50:46.244Z,12.97
2022-11-01T07:53:16.070Z,13.77
2022-11-01T07:55:44.423Z,20.07
2022-11-01T07:58:13.385Z,19.17
2022-11-01T08:00:41.792Z,17.67
2022-11-01T08:03:12.348Z,17.13
2022-11-01T08:05:40.641Z,16.97
2022-11-01T08:08:10.638Z,14.70
2022-11-01T08:10:39.510Z,13.83
2022-11-01T08:13:14.866Z,12.13
2022-11-01T08:15:42.995Z,12.60
2022-11-01T08:18:11.269Z,11.40
2022-11-01T08:20:39.096Z,12.07
2022-11-01T08:23:07.188Z,12.03
2022-11-01T08:25:36.711Z,11.33
2022-11-01T08:28:05.404Z,11.70
2022-11-01T08:30:33.565Z,11.47
2022-11-01T08:33:02.907Z,10.20
2022-11-01T08:35:32.520Z,9.33
2022-11-01T08:38:01.348Z,9.50
2022-11-01T08:40:29.354Z,8.20
2022-11-01T08:42:59.262Z,8.70
2022-11-01T08:45:27.785Z,8.90
2022-11-01T08:47:59.363Z,9.73
2022-11-01T08:50:27.836Z,7.90
2022-11-01T08:52:55.794Z,7.70
2022-11-01T08:55:23.914Z,8.13
2022-11-01T08:57:51.798Z,7.67
2022-11-01T09:00:21.416Z,8.10
2022-11-01T09:02:49.312Z,7.90
2022-11-01T09:05:17.450Z,8.20
2022-11-01T09:07:45.407Z,8.13
2022-11-01T09:10:13.367Z,8.00
2022-11-01T09:15:09.886Z,7.67
2022-11-01T09:17:39.112Z,7.70
2022-11-01T09:20:09.330Z,7.20
2022-11-01T09:22:38.226Z,7.30
2022-11-01T09:25:06.629Z,7.23
2022-11-01T09:27:34.901Z,6.57
2022-11-01T09:30:02.824Z,6.43
2022-11-01T09:32:30.942Z,5.93
2022-11-01T09:35:00.691Z,6.07
2022-11-01T09:37:28.556Z,6.37
2022-11-01T09:39:56.358Z,5.60
2022-11-01T09:42:28.634Z,5.87
2022-11-01T09:45:00.657Z,5.70
2022-11-01T09:47:30.679Z,6.10
2022-11-01T09:50:05.382Z,6.10
2022-11-01T09:52:33.446Z,5.60
2022-11-01T09:55:01.303Z,5.70
2022-11-01T09:57:36.470Z,6.00
2022-11-01T10:00:08.882Z,5.60
2022-11-01T10:03:07.776Z,6.07
2022-11-01T10:05:51.621Z,5.27
2022-11-01T10:08:31.176Z,5.57
2022-11-01T10:11:16.963Z,5.73
2022-11-01T10:13:51.581Z,5.93
2022-11-01T10:16:29.512Z,6.63
2022-11-01T10:19:05.216Z,6.10
2022-11-01T10:21:42.989Z,5.80
2022-11-01T10:24:21.352Z,6.03
2022-11-01T10:26:52.578Z,6.00
2022-11-01T10:29:29.395Z,5.27
2022-11-01T10:31:58.891Z,5.90
2022-11-01T10:34:35.682Z,5.30
2022-11-01T10:37:15.502Z,5.03
2022-11-01T10:39:55.394Z,5.57
2022-11-01T10:42:24.861Z,6.00
2022-11-01T10:44:57.357Z,5.13
2022-11-01T10:47:28.003Z,5.10
2022-11-01T10:50:05.842Z,4.77
2022-11-01T10:52:44.116Z,5.10
2022-11-01T10:55:15.168Z,5.93
2022-11-01T10:57:49.397Z,5.53
2022-11-01T11:00:19.862Z,5.67
2022-11-01T11:02:51.778Z,4.57
2022-11-01T11:05:22.353Z,4.53
2022-11-01T11:07:51.906Z,5.83
2022-11-01T11:10:24.455Z,5.17
2022-11-01T11:12:57.637Z,5.33
2022-11-01T11:15:36.411Z,4.70
2022-11-01T11:18:09.073Z,4.03
2022-11-01T11:20:37.886Z,4.10
2022-11-01T11:23:12.812Z,4.77
2022-11-01T11:25:42.993Z,4.47
2022-11-01T11:28:23.504Z,5.17
2022-11-01T11:30:51.502Z,4.50
2022-11-01T11:33:19.966Z,4.27
2022-11-01T11:35:56.155Z,4.80
2022-11-01T11:38:44.517Z,4.70
2022-11-01T11:41:14.219Z,4.30
2022-11-01T11:43:42.642Z,4.50
2022-11-01T11:46:20.959Z,4.70
2022-11-01T11:48:52.202Z,6.40
2022-11-01T11:51:21.386Z,4.40
2022-11-01T11:54:15.851Z,3.67
2022-11-01T11:56:45.062Z,3.60
2022-11-01T11:59:22.980Z,3.00
2022-11-01T12:01:51.478Z,2.80
2022-11-01T12:04:21.349Z,3.23
2022-11-01T12:06:49.305Z,3.13
2022-11-01T12:09:43.923Z,3.20
2022-11-01T12:12:21.888Z,3.13
2022-11-01T12:14:51.026Z,2.80
2022-11-01T12:17:31.482Z,2.83
2022-11-01T12:20:09.622Z,2.70
2022-11-01T12:22:41.037Z,2.90
2022-11-01T12:25:15.409Z,2.53
2022-11-01T12:27:52.415Z,2.50
2022-11-01T12:30:23.210Z,2.63
2022-11-01T12:32:53.814Z,2.40
2022-11-01T12:35:33.650Z,2.30
2022-11-01T12:38:14.556Z,2.43
2022-11-01T12:40:46.625Z,2.47
2022-11-01T12:43:24.888Z,2.33
2022-11-01T12:45:59.056Z,2.40
2022-11-01T12:48:37.008Z,2.30
2022-11-01T12:51:14.452Z,2.23
2022-11-01T12:53:49.289Z,2.20
2022-11-01T12:56:41.081Z,2.20
2022-11-01T12:59:12.308Z,1.80
2022-11-01T13:01:54.749Z,2.20
2022-11-01T13:05:00.617Z,1.93
2022-11-01T13:07:42.436Z,1.70
2022-11-01T13:10:20.518Z,1.90
2022-11-01T13:12:58.253Z,1.60
2022-11-01T13:15:33.167Z,1.60
2022-11-01T13:18:09.756Z,1.73
2022-11-01T13:20:48.427Z,1.80
2022-11-01T13:23:26.017Z,1.27
2022-11-01T13:25:58.884Z,1.50
2022-11-01T13:28:44.264Z,1.50
2022-11-01T13:31:24.486Z,1.43
2022-11-01T13:34:01.109Z,1.50
2022-11-01T13:36:38.417Z,1.60
2022-11-01T13:39:16.515Z,1.43
2022-11-01T13:41:52.452Z,1.40
2022-11-01T13:44:25.659Z,1.90
2022-11-01T13:47:30.682Z,1.50
2022-11-01T13:50:26.016Z,1.57
2022-11-01T13:52:59.067Z,1.70
2022-11-01T13:55:36.446Z,1.40
2022-11-01T13:58:06.879Z,1.50
2022-11-01T14:00:44.533Z,1.67
2022-11-01T14:03:24.454Z,1.77
2022-11-01T14:06:26.231Z,1.40
2022-11-01T14:09:31.807Z,1.43
2022-11-01T14:12:12.157Z,1.60
2022-11-01T14:14:54.923Z,1.57
2022-11-01T14:18:00.735Z,1.57
2022-11-01T14:20:50.912Z,1.40
2022-11-01T14:23:59.584Z,1.50
2022-11-01T14:27:02.022Z,1.27
2022-11-01T14:29:31.001Z,1.20
2022-11-01T14:32:00.287Z,1.17
2022-11-01T14:34:35.667Z,1.40
2022-11-01T14:37:31.686Z,1.00
2022-11-01T14:40:04.926Z,1.10
2022-11-01T14:42:42.514Z,1.10
2022-11-01T14:45:32.362Z,2.43
2022-11-01T14:48:07.097Z,1.80
2022-11-01T14:50:42.490Z,2.13
2022-11-01T14:53:19.310Z,2.20
2022-11-01T14:55:47.358Z,1.50
2022-11-01T14:58:22.418Z,1.77
2022-11-01T15:00:55.014Z,1.70
2022-11-01T15:03:25.329Z,1.50
2022-11-01T15:05:55.498Z,1.60
2022-11-01T15:08:31.107Z,1.20
2022-11-01T15:11:02.691Z,1.27
2022-11-01T15:13:33.714Z,1.17
2022-11-01T15:16:13.659Z,1.20
2022-11-01T15:18:47.918Z,1.07
2022-11-01T15:21:22.095Z,1.20
2022-11-01T15:23:55.697Z,1.13
2022-11-01T15:26:28.142Z,1.20
2022-11-01T15:28:58.948Z,1.10
2022-11-01T15:31:27.455Z,0.90
2022-11-01T15:33:57.373Z,0.90
2022-11-01T15:36:29.548Z,1.00
2022-11-01T15:39:00.332Z,0.70
2022-11-01T15:41:32.803Z,0.90
2022-11-01T15:44:02.532Z,0.90
2022-11-01T15:46:33.957Z,0.80
2022-11-01T15:49:07.659Z,1.07
2022-11-01T15:51:41.734Z,1.00
2022-11-01T15:54:20.779Z,0.90
2022-11-01T15:56:54.088Z,0.90
2022-11-01T15:59:27.958Z,0.90
2022-11-01T16:01:58.580Z,0.70
2022-11-01T16:04:35.184Z,0.67
2022-11-01T16:07:06.282Z,0.80
2022-11-01T16:09:38.464Z,0.80
2022-11-01T16:12:14.549Z,1.00
2022-11-01T16:14:43.067Z,0.80
2022-11-01T16:17:24.476Z,0.80
2022-11-01T16:19:53.685Z,0.90
2022-11-01T16:22:31.163Z,1.00
2022-11-01T16:25:20.424Z,1.30
2022-11-01T16:28:23.856Z,1.40
2022-11-01T16:30:53.082Z,1.23
2022-11-01T16:33:24.304Z,1.10
2022-11-01T16:35:54.946Z,1.30
2022-11-01T16:38:44.882Z,1.20
2022-11-01T16:41:20.253Z,1.03
2022-11-01T16:43:49.101Z,1.00
2022-11-01T16:46:17.006Z,1.10
2022-11-01T16:48:56.678Z,1.00
2022-11-01T16:51:26.981Z,1.00
2022-11-01T16:53:55.501Z,1.17
2022-11-01T16:56:36.657Z,0.90
2022-11-01T16:59:08.048Z,0.97
2022-11-01T17:01:36.595Z,1.10
2022-11-01T17:04:05.507Z,1.27
2022-11-01T17:06:38.636Z,1.60
2022-11-01T17:09:13.429Z,1.47
2022-11-01T17:11:47.884Z,1.40
2022-11-01T17:14:17.674Z,1.10
2022-11-01T17:16:47.516Z,1.40
2022-11-01T17:19:21.618Z,1.10
2022-11-01T17:21:51.690Z,1.37
2022-11-01T17:24:22.807Z,1.20
2022-11-01T17:26:54.176Z,0.90
2022-11-01T17:29:21.947Z,1.10
2022-11-01T17:31:49.686Z,1.00
2022-11-01T17:34:17.465Z,0.87
2022-11-01T17:36:49.556Z,1.17
2022-11-01T17:39:17.320Z,1.37
2022-11-01T17:41:45.490Z,1.40
2022-11-01T17:44:14.649Z,1.50
2022-11-01T17:46:42.796Z,1.90
2022-11-01T17:49:14.393Z,1.83
2022-11-01T17:51:42.680Z,2.10
2022-11-01T17:54:11.123Z,1.70
2022-11-01T17:56:38.950Z,1.77
2022-11-01T17:59:08.637Z,1.40
2022-11-01T18:01:39.395Z,1.77
2022-11-01T18:04:07.386Z,1.50
2022-11-01T18:06:35.235Z,1.60
2022-11-01T18:09:05.499Z,1.37
2022-11-01T18:11:39.693Z,1.83
2022-11-01T18:14:15.714Z,2.13
2022-11-01T18:16:49.076Z,1.93
2022-11-01T18:19:35.388Z,1.80
2022-11-01T18:22:13.730Z,1.90
2022-11-01T18:24:46.388Z,1.80
2022-11-01T18:27:16.397Z,1.83
2022-11-01T18:29:48.168Z,2.10
2022-11-01T18:32:24.827Z,1.73
2022-11-01T18:34:57.572Z,1.70
2022-11-01T18:37:30.276Z,2.30
2022-11-01T18:40:04.661Z,2.50
2022-11-01T18:42:32.470Z,2.20
2022-11-01T18:45:08.377Z,2.20
2022-11-01T18:47:43.535Z,1.90
2022-11-01T18:50:20.883Z,1.83
2022-11-01T18:52:48.771Z,2.13
2022-11-01T18:55:16.802Z,2.00
2022-11-01T18:57:44.592Z,1.90
2022-11-01T19:00:14.878Z,1.70
2022-11-01T19:02:44.056Z,2.20
2022-11-01T19:05:17.212Z,2.27
2022-11-01T19:08:09.628Z,2.33
2022-11-01T19:10:35.375Z,2.13
2022-11-01T19:13:03.208Z,1.90
2022-11-01T19:15:31.440Z,2.20
2022-11-01T19:18:03.372Z,2.03
2022-11-01T19:20:33.302Z,2.00
2022-11-01T19:23:03.234Z,2.10
2022-11-01T19:25:33.120Z,2.10
2022-11-01T19:28:04.372Z,2.30
2022-11-01T19:30:34.252Z,2.20
2022-11-01T19:33:17.746Z,2.00
2022-11-01T19:35:45.962Z,2.20
2022-11-01T19:38:16.792Z,2.30
2022-11-01T19:40:44.777Z,2.10
2022-11-01T19:43:22.209Z,1.77
2022-11-01T19:45:51.954Z,1.53
2022-11-01T19:48:23.524Z,1.50
2022-11-01T19:50:51.307Z,1.40
2022-11-01T19:53:26.323Z,1.90
2022-11-01T19:55:55.820Z,1.80
2022-11-01T19:58:35.853Z,1.50
2022-11-01T20:01:28.308Z,1.70
2022-11-01T20:03:59.355Z,1.70
2022-11-01T20:06:33.081Z,1.57
2022-11-01T20:09:04.395Z,1.53
2022-11-01T20:11:32.535Z,1.40
2022-11-01T20:14:00.289Z,1.90
2022-11-01T20:16:28.021Z,1.87
2022-11-01T20:18:57.107Z,1.60
2022-11-01T20:21:24.835Z,1.50
2022-11-01T20:23:52.564Z,1.60
2022-11-01T20:26:20.314Z,1.90
2022-11-01T20:28:49.107Z,2.30
2022-11-01T20:31:17.141Z,2.20
2022-11-01T20:33:46.550Z,1.87
2022-11-01T20:36:15.785Z,1.60
2022-11-01T20:38:43.606Z,1.77
2022-11-01T20:41:12.983Z,1.70
2022-11-01T20:43:40.913Z,1.80
2022-11-01T20:46:08.702Z,1.80
2022-11-01T20:48:36.474Z,1.83
2022-11-01T20:51:04.198Z,1.70
2022-11-01T20:53:34.120Z,1.70
2022-11-01T20:56:02.216Z,1.43
2022-11-01T20:58:30.041Z,1.70
2022-11-01T21:00:57.846Z,1.27
2022-11-01T21:03:26.575Z,1.57
2022-11-01T21:05:54.335Z,1.10
2022-11-01T21:08:24.881Z,1.40
2022-11-01T21:10:56.641Z,1.30
2022-11-01T21:13:27.087Z,1.30
2022-11-01T21:15:56.493Z,1.27
2022-11-01T21:18:33.367Z,1.20
2022-11-01T21:21:26.779Z,1.10
2022-11-01T21:23:55.056Z,1.40
2022-11-01T21:26:26.551Z,1.10
2022-11-01T21:28:56.379Z,1.27
2022-11-01T21:31:29.090Z,1.30
2022-11-01T21:33:58.527Z,1.33
2022-11-01T21:36:30.001Z,1.17
2022-11-01T21:39:00.416Z,1.17
2022-11-01T21:41:34.573Z,0.90
2022-11-01T21:44:17.113Z,1.13
2022-11-01T21:46:48.078Z,1.00
2022-11-01T21:49:31.645Z,1.20
2022-11-01T21:52:01.302Z,1.00
2022-11-01T21:54:30.411Z,0.90
2022-11-01T21:56:59.498Z,1.07
2022-11-01T21:59:28.286Z,0.90
2022-11-01T22:01:56.896Z,0.93
2022-11-01T22:04:28.640Z,1.00
2022-11-01T22:06:57.118Z,0.83
2022-11-01T22:09:25.241Z,0.80
2022-11-01T22:11:53.228Z,1.17
2022-11-01T22:14:22.648Z,1.00
2022-11-01T22:16:50.447Z,0.90
2022-11-01T22:19:18.254Z,1.00
2022-11-01T22:24:18.798Z,1.00
2022-11-01T22:26:46.609Z,1.10
2022-11-01T22:29:14.335Z,0.90
2022-11-01T22:31:43.564Z,1.00
2022-11-01T22:34:11.336Z,0.80
2022-11-01T22:36:42.559Z,1.10
2022-11-01T22:39:17.577Z,1.10
2022-11-01T22:41:45.344Z,1.00
2022-11-01T22:44:15.293Z,1.20
2022-11-01T22:46:56.920Z,1.10
2022-11-01T22:49:29.989Z,1.10
2022-11-01T22:52:00.970Z,1.13
2022-11-01T22:54:38.190Z,1.23
2022-11-01T22:57:15.264Z,1.10
2022-11-01T22:59:45.838Z,1.10
2022-11-01T23:02:28.020Z,1.20
2022-11-01T23:05:02.126Z,1.30
2022-11-01T23:07:34.532Z,1.33
2022-11-01T23:10:06.251Z,1.20
2022-11-01T23:12:54.397Z,1.20
2022-11-01T23:15:28.701Z,1.13
2022-11-01T23:18:02.979Z,1.17
2022-11-01T23:20:30.843Z,0.93
2022-11-01T23:23:00.156Z,0.80
2022-11-01T23:25:27.918Z,1.20
2022-11-01T23:27:55.772Z,0.80
2022-11-01T23:30:23.504Z,1.07
2022-11-01T23:32:51.257Z,1.10
2022-11-01T23:35:22.850Z,0.90
2022-11-01T23:37:50.989Z,0.90
2022-11-01T23:40:21.901Z,0.80
2022-11-01T23:42:50.119Z,1.20
2022-11-01T23:45:26.251Z,1.07
2022-11-01T23:47:54.159Z,0.90
2022-11-01T23:50:28.468Z,0.93
2022-11-01T23:52:58.858Z,0.93
2022-11-01T23:55:29.504Z,0.57
2022-11-01T23:57:59.799Z,0.70
